Terminal Aerodrome Forecast
Issued by NWS

Home | Current Version | Previous Version | Text Only | Print | Product List | Glossary On
Versions: 1 2 3 4 5 6 7 8 9 10 11 12 13 14 15 16 17 18 19 20 21 22 23 24 25 26 27 28 29 30 31 32 33 34 35 36 37 38 39 40 41 42 43 44 45 46 47 48 49 50
480
FTUS46 KOTX 150742 AAA
TAFPUW
TAF AMD
KPUW 150742Z 1508/1606 11006KT P6SM OVC011
     FM151000 11005KT 3SM BR OVC008
     FM151900 13007KT P6SM OVC012
     FM152200 23005KT 1SM -SN OVC005=

USA.gov is the U.S. government's official web portal to all federal, state and local government web resources and services.